Time;durP1;ratioP1;P1;durP2;ratioP2;P2;SDS_P1;SDS_P2;PMS_P1;PMS_P2;Temp;Humidity;BMP_temperature;BMP_pressure;BME280_temperature;BME280_humidity;BME280_pressure;Samples;Min_cycle;Max_cycle;Signal;HPM_P1;HPM_P2
2023/09/23 00:00:08;;;;;;;0.10;0.10;;;12.40;99.90;;;;;;5084663;28;20513;-66
2023/09/23 00:02:35;;;;;;;0.10;0.10;;;12.40;99.90;;;;;;5118788;27;20028;-65
2023/09/23 00:05:05;;;;;;;0.68;0.10;;;12.40;99.90;;;;;;5082771;28;20047;-66
2023/09/23 00:07:31;;;;;;;0.10;0.10;;;12.40;99.90;;;;;;5081248;28;20074;-66
2023/09/23 00:09:57;;;;;;;0.20;0.15;;;12.30;99.90;;;;;;5066859;28;20051;-66
2023/09/23 00:12:22;;;;;;;0.10;0.10;;;12.30;99.90;;;;;;5085307;28;20043;-65
2023/09/23 00:14:48;;;;;;;0.28;0.22;;;12.30;99.90;;;;;;5101057;27;20036;-65
2023/09/23 00:17:14;;;;;;;1.27;0.28;;;12.30;99.90;;;;;;5100132;28;20031;-65
2023/09/23 00:19:40;;;;;;;0.50;0.10;;;12.30;99.90;;;;;;5101907;28;20076;-66
2023/09/23 00:22:06;;;;;;;0.93;0.22;;;12.30;99.90;;;;;;5099938;28;20051;-66
2023/09/23 00:24:31;;;;;;;0.10;0.10;;;12.20;99.90;;;;;;5116027;27;20043;-66
2023/09/23 00:26:59;;;;;;;0.43;0.10;;;12.20;99.90;;;;;;5096289;28;20035;-66
2023/09/23 00:29:28;;;;;;;0.38;0.22;;;12.20;99.90;;;;;;5084006;28;20044;-65
2023/09/23 00:31:54;;;;;;;0.55;0.25;;;12.30;99.90;;;;;;5098303;28;20058;-65
2023/09/23 00:34:23;;;;;;;0.15;0.10;;;12.20;99.90;;;;;;5097465;28;20437;-65
2023/09/23 00:36:50;;;;;;;0.50;0.10;;;12.20;99.90;;;;;;5096327;28;20040;-65
2023/09/23 00:39:17;;;;;;;0.30;0.17;;;12.20;99.90;;;;;;5100687;28;20146;-65
2023/09/23 00:41:43;;;;;;;0.32;0.30;;;12.20;99.90;;;;;;5099447;28;20151;-65
2023/09/23 00:44:10;;;;;;;0.60;0.40;;;12.20;99.90;;;;;;5098332;28;20036;-65
2023/09/23 00:46:37;;;;;;;0.20;0.10;;;12.20;99.90;;;;;;5114037;27;20075;-65
2023/09/23 00:49:09;;;;;;;0.43;0.20;;;12.20;99.90;;;;;;5101726;27;20096;-65
2023/09/23 00:51:37;;;;;;;0.20;0.10;;;12.20;99.90;;;;;;5096651;28;20565;-66
2023/09/23 00:54:13;;;;;;;0.22;0.13;;;12.20;99.90;;;;;;5098621;28;20131;-65
2023/09/23 00:56:41;;;;;;;0.38;0.30;;;12.20;99.90;;;;;;5101120;28;20040;-65
2023/09/23 00:59:06;;;;;;;0.28;0.13;;;12.20;99.90;;;;;;5079285;28;20126;-65
2023/09/23 01:01:32;;;;;;;0.20;0.10;;;12.20;99.90;;;;;;5080191;28;20044;-66
2023/09/23 01:03:58;;;;;;;0.38;0.28;;;12.20;99.90;;;;;;5100086;28;20421;-65
2023/09/23 01:06:27;;;;;;;0.80;0.30;;;12.20;99.90;;;;;;5112610;28;20054;-66
2023/09/23 01:08:54;;;;;;;0.20;0.10;;;12.20;99.90;;;;;;5098035;28;20047;-66
2023/09/23 01:11:21;;;;;;;0.52;0.20;;;12.20;99.90;;;;;;5097332;28;20117;-66
2023/09/23 01:13:52;;;;;;;0.10;0.10;;;12.20;99.90;;;;;;5077519;28;20130;-66
2023/09/23 01:16:18;;;;;;;0.38;0.15;;;12.20;99.90;;;;;;5098712;28;20052;-66
2023/09/23 01:18:45;;;;;;;0.20;0.17;;;12.20;99.90;;;;;;5095361;28;20123;-66
2023/09/23 01:21:11;;;;;;;2.63;0.22;;;12.20;99.90;;;;;;5079503;28;20052;-66
2023/09/23 01:23:38;;;;;;;0.10;0.10;;;12.10;99.90;;;;;;5096197;28;20032;-66
2023/09/23 01:26:04;;;;;;;0.38;0.10;;;12.10;99.90;;;;;;5100865;28;20381;-66
2023/09/23 01:28:32;;;;;;;0.00;0.00;;;12.10;99.90;;;;;;5098856;28;20062;-66
2023/09/23 01:31:02;;;;;;;0.10;0.00;;;12.20;99.90;;;;;;5103032;28;20087;-65
2023/09/23 01:33:29;;;;;;;0.10;0.00;;;12.20;99.90;;;;;;5077986;28;20056;-65
2023/09/23 01:35:57;;;;;;;0.20;0.10;;;12.20;99.90;;;;;;5097577;28;20051;-65
2023/09/23 01:38:24;;;;;;;1.00;0.10;;;12.10;99.90;;;;;;5099095;28;20378;-65
2023/09/23 01:40:51;;;;;;;0.60;0.20;;;12.10;99.90;;;;;;5103127;28;20089;-65
2023/09/23 01:43:17;;;;;;;1.27;0.20;;;12.10;99.90;;;;;;5097938;28;20044;-65
2023/09/23 01:45:43;;;;;;;1.08;0.40;;;12.00;99.90;;;;;;5078671;28;20042;-65
2023/09/23 01:48:08;;;;;;;0.60;0.22;;;12.00;99.90;;;;;;5084205;28;20050;-65
2023/09/23 01:50:34;;;;;;;0.38;0.20;;;12.10;99.90;;;;;;5100075;28;20494;-65
2023/09/23 01:53:00;;;;;;;0.28;0.17;;;12.00;99.90;;;;;;5099312;28;20036;-65
2023/09/23 01:55:29;;;;;;;0.80;0.20;;;12.00;99.90;;;;;;5098213;28;20441;-65
2023/09/23 01:57:55;;;;;;;0.22;0.13;;;12.00;99.90;;;;;;5101115;27;20040;-65
2023/09/23 02:00:26;;;;;;;0.95;0.45;;;12.00;99.90;;;;;;5104891;28;20089;-66
2023/09/23 02:02:56;;;;;;;0.30;0.20;;;12.00;99.90;;;;;;5087154;28;20101;-66
2023/09/23 02:05:27;;;;;;;0.50;0.30;;;12.00;99.90;;;;;;5100319;28;20036;-66
2023/09/23 02:07:53;;;;;;;0.65;0.40;;;12.00;99.90;;;;;;5081604;28;20066;-66
2023/09/23 02:10:26;;;;;;;1.33;0.38;;;12.00;99.90;;;;;;5099248;28;20044;-66
2023/09/23 02:12:52;;;;;;;1.25;0.45;;;11.90;99.90;;;;;;5103452;28;20043;-66
2023/09/23 02:15:18;;;;;;;0.55;0.32;;;11.90;99.90;;;;;;5099614;27;20108;-66
2023/09/23 02:17:45;;;;;;;1.02;0.52;;;11.80;99.90;;;;;;5098323;28;20032;-66
2023/09/23 02:20:19;;;;;;;0.63;0.45;;;11.70;99.90;;;;;;5113982;27;20365;-66
2023/09/23 02:22:55;;;;;;;1.33;0.65;;;11.70;99.90;;;;;;5084978;28;20048;-66
2023/09/23 02:25:25;;;;;;;0.85;0.35;;;11.70;99.90;;;;;;5105255;28;20083;-67
2023/09/23 02:27:52;;;;;;;0.40;0.28;;;11.60;99.90;;;;;;5084027;28;20101;-67
2023/09/23 02:30:17;;;;;;;1.10;0.52;;;11.60;99.90;;;;;;5116678;27;20085;-66
2023/09/23 02:32:46;;;;;;;0.82;0.50;;;11.50;99.90;;;;;;5086428;28;20487;-66
2023/09/23 02:35:15;;;;;;;1.00;0.45;;;11.50;99.90;;;;;;5081659;28;20047;-66
2023/09/23 02:37:45;;;;;;;0.60;0.32;;;11.40;99.90;;;;;;5080086;28;20042;-66
2023/09/23 02:40:15;;;;;;;0.30;0.20;;;11.30;99.90;;;;;;5099313;28;20513;-66
2023/09/23 02:42:51;;;;;;;0.80;0.60;;;11.30;99.90;;;;;;5097634;28;20093;-66
2023/09/23 02:45:17;;;;;;;3.70;0.65;;;11.30;99.90;;;;;;5097564;28;20036;-66
2023/09/23 02:47:47;;;;;;;0.30;0.30;;;11.20;99.90;;;;;;5101684;28;20498;-70
2023/09/23 02:50:13;;;;;;;0.93;0.40;;;11.20;99.90;;;;;;5081655;28;20051;-67
2023/09/23 02:52:50;;;;;;;0.45;0.38;;;11.10;99.90;;;;;;5104706;27;20036;-66
2023/09/23 02:55:16;;;;;;;0.50;0.32;;;11.10;99.90;;;;;;5083617;28;20066;-67
2023/09/23 02:57:48;;;;;;;0.60;0.40;;;11.10;99.90;;;;;;5095499;28;20523;-67
2023/09/23 03:00:19;;;;;;;1.17;0.57;;;11.00;99.90;;;;;;5079691;28;20046;-67
2023/09/23 03:02:48;;;;;;;0.52;0.40;;;11.00;99.90;;;;;;5080793;28;20043;-67
2023/09/23 03:05:17;;;;;;;1.42;0.60;;;10.90;99.90;;;;;;5078628;28;20067;-67
2023/09/23 03:07:50;;;;;;;0.98;0.55;;;10.90;99.90;;;;;;5080969;28;20483;-67
2023/09/23 03:10:18;;;;;;;0.85;0.68;;;10.80;99.90;;;;;;5076707;28;20077;-67
2023/09/23 03:12:51;;;;;;;1.50;0.70;;;10.80;99.90;;;;;;5082593;28;20047;-67
2023/09/23 03:15:20;;;;;;;0.90;0.45;;;10.80;99.90;;;;;;5091927;28;20044;-67
2023/09/23 03:17:50;;;;;;;0.88;0.60;;;10.70;99.90;;;;;;5078596;28;20028;-67
2023/09/23 03:20:26;;;;;;;0.45;0.43;;;10.70;99.90;;;;;;5078232;28;20046;-67
2023/09/23 03:22:53;;;;;;;1.38;0.68;;;10.70;99.90;;;;;;5097640;28;20081;-68
2023/09/23 03:25:20;;;;;;;1.20;0.57;;;10.70;99.90;;;;;;5084384;28;20047;-67
2023/09/23 03:27:52;;;;;;;1.08;0.63;;;10.60;99.90;;;;;;5076800;28;20070;-67
2023/09/23 03:30:19;;;;;;;1.13;0.55;;;10.60;99.90;;;;;;5081428;28;20116;-66
2023/09/23 03:32:45;;;;;;;1.17;0.98;;;10.60;99.90;;;;;;5088107;28;20100;-65
2023/09/23 03:35:20;;;;;;;1.48;0.57;;;10.60;99.90;;;;;;5064914;28;20039;-67
2023/09/23 03:37:49;;;;;;;0.77;0.68;;;10.60;99.90;;;;;;5079481;28;20051;-67
2023/09/23 03:40:19;;;;;;;1.75;0.88;;;10.50;99.90;;;;;;5117058;27;20031;-67
2023/09/23 03:42:46;;;;;;;1.45;0.98;;;10.50;99.90;;;;;;5098701;28;20144;-67
2023/09/23 03:45:12;;;;;;;1.52;0.60;;;10.50;99.90;;;;;;5115842;27;20071;-66
2023/09/23 03:47:38;;;;;;;0.93;0.70;;;10.40;99.90;;;;;;5100853;28;20422;-65
2023/09/23 03:50:05;;;;;;;1.13;0.63;;;10.40;99.90;;;;;;5112510;27;20050;-66
2023/09/23 03:52:32;;;;;;;1.30;0.80;;;10.40;99.90;;;;;;5102352;28;20040;-66
2023/09/23 03:54:58;;;;;;;1.85;0.88;;;10.40;99.90;;;;;;5097831;28;20529;-66
2023/09/23 03:57:24;;;;;;;1.23;0.80;;;10.40;99.90;;;;;;5082288;28;20066;-66
2023/09/23 03:59:49;;;;;;;1.52;0.90;;;10.40;99.90;;;;;;5114337;27;20040;-66
2023/09/23 04:02:15;;;;;;;1.17;1.00;;;10.40;99.90;;;;;;5079237;28;20111;-66
2023/09/23 04:04:41;;;;;;;1.70;0.80;;;10.40;99.90;;;;;;5084259;28;20488;-66
2023/09/23 04:07:07;;;;;;;1.27;0.85;;;10.50;99.90;;;;;;5115471;27;20101;-66
2023/09/23 04:09:33;;;;;;;1.48;0.75;;;10.50;99.90;;;;;;5102760;28;20441;-67
2023/09/23 04:12:03;;;;;;;1.10;0.73;;;10.50;99.90;;;;;;5120405;27;20056;-66
2023/09/23 04:14:29;;;;;;;1.63;1.15;;;10.60;99.90;;;;;;5087052;28;20059;-66
2023/09/23 04:16:55;;;;;;;1.05;0.93;;;10.70;99.90;;;;;;5113554;27;20471;-66
2023/09/23 04:19:21;;;;;;;7.00;0.95;;;10.60;99.90;;;;;;5104241;28;20576;-67
2023/09/23 04:21:46;;;;;;;1.10;0.88;;;10.60;99.90;;;;;;5109562;27;20502;-66
2023/09/23 04:24:12;;;;;;;1.45;0.60;;;10.60;99.90;;;;;;5118331;27;20122;-66
2023/09/23 04:26:38;;;;;;;0.82;0.75;;;10.60;99.90;;;;;;5098761;28;20035;-66
2023/09/23 04:29:04;;;;;;;2.00;1.25;;;10.60;99.90;;;;;;5101265;28;20036;-66
2023/09/23 04:31:30;;;;;;;1.00;0.52;;;10.60;99.90;;;;;;5100239;28;20046;-66
2023/09/23 04:33:56;;;;;;;1.67;1.08;;;10.60;99.90;;;;;;5081112;28;20451;-66
2023/09/23 04:36:21;;;;;;;1.58;0.98;;;10.60;99.90;;;;;;5096987;28;20560;-66
2023/09/23 04:38:48;;;;;;;1.35;0.70;;;10.60;99.90;;;;;;5100420;28;20047;-66
2023/09/23 04:41:14;;;;;;;1.45;0.80;;;10.70;99.90;;;;;;5115698;27;20363;-67
2023/09/23 04:43:40;;;;;;;2.13;1.05;;;10.60;99.90;;;;;;5115572;27;20027;-66
2023/09/23 04:46:06;;;;;;;2.15;1.35;;;10.60;99.90;;;;;;5081277;28;20455;-67
2023/09/23 04:48:32;;;;;;;1.98;0.95;;;10.60;99.90;;;;;;5076502;28;20538;-66
2023/09/23 04:50:58;;;;;;;1.83;1.08;;;10.60;99.90;;;;;;5080044;28;20036;-66
2023/09/23 04:53:24;;;;;;;1.92;0.90;;;10.50;99.90;;;;;;5095929;28;20049;-66
2023/09/23 04:55:50;;;;;;;2.03;1.00;;;10.50;99.90;;;;;;5087118;28;20391;-65
2023/09/23 04:58:16;;;;;;;2.15;1.35;;;10.50;99.90;;;;;;5103961;28;20330;-65
2023/09/23 05:00:42;;;;;;;1.55;1.10;;;10.40;99.90;;;;;;5097485;28;20496;-66
2023/09/23 05:03:08;;;;;;;1.50;0.88;;;10.40;99.90;;;;;;5060826;28;20108;-66
2023/09/23 05:05:35;;;;;;;3.03;1.25;;;10.40;99.90;;;;;;5081645;28;20202;-66
2023/09/23 05:08:06;;;;;;;1.25;0.80;;;10.30;99.90;;;;;;5080490;28;20120;-67
2023/09/23 05:10:32;;;;;;;1.75;1.17;;;10.30;99.90;;;;;;5096953;28;20181;-66
2023/09/23 05:12:58;;;;;;;1.75;1.30;;;10.30;99.90;;;;;;5097459;28;20062;-66
2023/09/23 05:15:24;;;;;;;1.77;1.15;;;10.30;99.90;;;;;;5113712;28;20048;-66
2023/09/23 05:17:52;;;;;;;2.63;1.50;;;10.30;99.90;;;;;;5094367;28;20040;-66
2023/09/23 05:20:25;;;;;;;1.92;1.17;;;10.20;99.90;;;;;;5113797;28;20040;-65
2023/09/23 05:22:52;;;;;;;2.65;1.95;;;10.20;99.90;;;;;;5097279;28;20042;-66
2023/09/23 05:25:18;;;;;;;1.55;1.27;;;10.20;99.90;;;;;;5113677;27;20049;-66
2023/09/23 05:27:44;;;;;;;3.30;1.70;;;10.30;99.90;;;;;;5076631;28;20036;-66
2023/09/23 05:30:10;;;;;;;2.67;1.40;;;10.30;99.90;;;;;;5117233;27;20047;-66
2023/09/23 05:32:39;;;;;;;3.20;1.85;;;10.30;99.90;;;;;;5115154;27;20039;-66
2023/09/23 05:35:11;;;;;;;3.17;1.92;;;10.40;99.90;;;;;;5083386;28;20048;-66
2023/09/23 05:37:39;;;;;;;2.90;2.42;;;10.40;99.90;;;;;;5077174;28;20044;-67
2023/09/23 05:40:10;;;;;;;3.15;2.13;;;10.50;99.90;;;;;;5104546;28;20043;-67
2023/09/23 05:42:36;;;;;;;2.63;1.70;;;10.50;99.90;;;;;;5098755;28;20127;-67
2023/09/23 05:45:05;;;;;;;2.53;1.80;;;10.60;99.90;;;;;;5084853;28;20134;-66
2023/09/23 05:47:31;;;;;;;2.80;2.05;;;10.60;99.90;;;;;;5078398;28;20128;-67
2023/09/23 05:49:57;;;;;;;3.80;2.60;;;10.70;99.90;;;;;;5100137;28;20048;-67
2023/09/23 05:52:23;;;;;;;4.25;2.75;;;10.70;99.90;;;;;;5097084;28;20104;-66
2023/09/23 05:54:49;;;;;;;3.95;1.67;;;10.80;99.90;;;;;;5077463;28;20047;-66
2023/09/23 05:57:15;;;;;;;5.68;2.88;;;10.80;99.90;;;;;;5102390;28;20064;-66
2023/09/23 05:59:41;;;;;;;3.42;2.40;;;10.80;99.90;;;;;;5082710;28;20082;-66
2023/09/23 06:02:08;;;;;;;4.80;2.40;;;10.80;99.90;;;;;;5069261;28;20478;-66
2023/09/23 06:04:35;;;;;;;3.38;2.05;;;10.80;99.90;;;;;;5108430;28;20049;-66
2023/09/23 06:07:01;;;;;;;3.20;2.08;;;10.80;99.90;;;;;;5101093;28;20038;-66
2023/09/23 06:09:27;;;;;;;3.65;2.67;;;10.80;99.90;;;;;;5080872;28;20035;-66
2023/09/23 06:11:54;;;;;;;7.10;2.78;;;10.80;99.90;;;;;;5083325;28;20067;-66
2023/09/23 06:14:20;;;;;;;6.40;3.50;;;10.80;99.90;;;;;;5084965;28;20047;-65
2023/09/23 06:16:47;;;;;;;4.93;3.47;;;10.80;99.90;;;;;;5085124;28;20368;-66
2023/09/23 06:19:13;;;;;;;4.25;2.95;;;10.80;99.90;;;;;;5100286;28;20052;-66
2023/09/23 06:21:39;;;;;;;3.75;2.67;;;10.80;99.90;;;;;;5079533;28;20050;-66
2023/09/23 06:24:05;;;;;;;8.10;3.40;;;10.90;99.90;;;;;;5100073;28;20063;-67
2023/09/23 06:26:31;;;;;;;5.25;3.45;;;10.90;99.90;;;;;;5117175;27;20055;-65
2023/09/23 06:28:57;;;;;;;5.13;3.40;;;11.00;99.90;;;;;;5101275;28;20458;-66
2023/09/23 06:31:23;;;;;;;4.78;2.85;;;11.10;99.90;;;;;;5082764;28;20468;-66
2023/09/23 06:33:49;;;;;;;3.83;2.58;;;11.10;99.90;;;;;;5095484;28;20039;-66
2023/09/23 06:36:15;;;;;;;4.75;3.33;;;11.20;99.90;;;;;;5097475;28;20043;-65
2023/09/23 06:38:40;;;;;;;5.55;2.90;;;11.20;99.90;;;;;;5098243;28;20051;-66
2023/09/23 06:41:06;;;;;;;4.20;3.47;;;11.30;99.90;;;;;;5100616;28;20040;-66
2023/09/23 06:43:32;;;;;;;5.68;2.95;;;11.40;99.90;;;;;;5104995;28;20423;-66
2023/09/23 06:45:58;;;;;;;5.53;3.60;;;11.40;99.90;;;;;;5103139;28;20044;-66
2023/09/23 06:48:25;;;;;;;5.10;3.72;;;11.60;99.90;;;;;;5081229;28;20071;-66
2023/09/23 06:51:02;;;;;;;5.45;3.42;;;11.70;99.90;;;;;;5104005;28;20459;-66
2023/09/23 06:53:28;;;;;;;5.40;3.53;;;11.80;99.90;;;;;;5077025;28;20114;-66
2023/09/23 06:55:54;;;;;;;5.68;3.72;;;11.90;99.90;;;;;;5098879;28;20166;-67
2023/09/23 06:58:20;;;;;;;5.78;3.53;;;12.00;99.90;;;;;;5117071;27;20122;-65
2023/09/23 07:00:46;;;;;;;5.43;3.78;;;12.20;99.90;;;;;;5121134;27;20047;-65
2023/09/23 07:03:12;;;;;;;5.70;4.13;;;12.20;99.90;;;;;;5081308;28;20044;-65
2023/09/23 07:05:39;;;;;;;5.57;3.60;;;12.40;99.90;;;;;;5117322;27;20081;-66
2023/09/23 07:08:04;;;;;;;5.35;3.67;;;12.50;99.90;;;;;;5102210;28;20462;-66
2023/09/23 07:10:38;;;;;;;7.15;3.83;;;12.70;99.90;;;;;;5069302;28;20042;-65
2023/09/23 07:13:05;;;;;;;6.37;4.43;;;12.70;99.90;;;;;;5081893;28;20048;-65
2023/09/23 07:15:40;;;;;;;4.85;3.22;;;12.70;99.90;;;;;;5104775;28;20048;-65
2023/09/23 07:18:07;;;;;;;6.07;3.13;;;12.70;99.90;;;;;;5100109;28;20043;-65
2023/09/23 07:20:33;;;;;;;4.00;3.20;;;12.80;99.90;;;;;;5101088;28;20112;-65
2023/09/23 07:22:59;;;;;;;5.45;3.53;;;12.90;99.90;;;;;;5079979;28;20483;-65
2023/09/23 07:25:26;;;;;;;4.28;3.30;;;13.10;99.90;;;;;;5082143;28;20486;-65
2023/09/23 07:27:53;;;;;;;5.63;3.20;;;13.30;99.90;;;;;;5120725;27;20063;-66
2023/09/23 07:30:19;;;;;;;5.15;3.40;;;13.40;99.90;;;;;;5116148;27;20058;-66
2023/09/23 07:32:45;;;;;;;5.20;3.70;;;13.40;99.90;;;;;;5085521;28;20043;-66
2023/09/23 07:35:11;;;;;;;4.53;2.88;;;13.40;99.90;;;;;;5116989;27;20044;-65
2023/09/23 07:37:36;;;;;;;4.65;2.95;;;13.40;99.90;;;;;;5088676;28;20472;-66
2023/09/23 07:40:03;;;;;;;6.63;4.03;;;13.50;99.90;;;;;;5098122;28;20068;-66
2023/09/23 07:42:29;;;;;;;5.30;3.67;;;13.60;99.90;;;;;;5102138;28;20042;-65
2023/09/23 07:44:55;;;;;;;4.47;3.05;;;13.80;99.90;;;;;;5099043;28;20040;-66
2023/09/23 07:47:21;;;;;;;3.80;2.85;;;14.00;99.90;;;;;;5086362;28;20032;-66
2023/09/23 07:49:46;;;;;;;3.83;2.90;;;14.40;99.90;;;;;;5088859;28;20086;-65
2023/09/23 07:52:12;;;;;;;4.20;2.78;;;14.70;99.90;;;;;;5099237;28;20040;-65
2023/09/23 07:54:40;;;;;;;5.75;3.30;;;15.20;99.90;;;;;;5100364;28;20100;-66
2023/09/23 07:57:06;;;;;;;5.35;3.60;;;15.80;99.90;;;;;;5118620;27;20031;-66
2023/09/23 07:59:32;;;;;;;4.32;3.28;;;16.30;99.90;;;;;;5098304;28;20124;-66
2023/09/23 08:01:57;;;;;;;4.45;3.08;;;16.70;99.90;;;;;;5099709;28;20043;-65
2023/09/23 08:04:23;;;;;;;5.60;3.53;;;16.80;99.90;;;;;;5105404;28;20047;-65
2023/09/23 08:06:49;;;;;;;4.30;2.78;;;16.80;99.90;;;;;;5082212;28;20039;-66
2023/09/23 08:09:14;;;;;;;4.30;3.00;;;16.60;99.90;;;;;;5101205;28;20115;-66
2023/09/23 08:11:40;;;;;;;3.28;2.38;;;16.50;99.90;;;;;;5082411;28;20070;-67
2023/09/23 08:14:06;;;;;;;4.38;3.40;;;16.60;99.90;;;;;;5099732;28;20051;-67
2023/09/23 08:16:31;;;;;;;3.85;2.80;;;16.40;99.90;;;;;;5090877;28;20055;-67
2023/09/23 08:18:57;;;;;;;2.50;2.08;;;16.20;99.90;;;;;;5097794;28;20122;-67
2023/09/23 08:21:23;;;;;;;3.58;2.72;;;15.90;99.90;;;;;;5110883;27;20832;-67
2023/09/23 08:23:48;;;;;;;6.57;2.67;;;15.70;99.90;;;;;;5101991;28;20035;-67
2023/09/23 08:26:15;;;;;;;3.15;2.25;;;15.60;99.90;;;;;;5098234;28;20039;-67
2023/09/23 08:28:42;;;;;;;4.40;2.70;;;16.30;99.90;;;;;;5102124;28;20046;-67
2023/09/23 08:31:08;;;;;;;4.63;2.80;;;17.20;99.90;;;;;;5066891;28;20032;-67
2023/09/23 08:33:35;;;;;;;5.43;2.45;;;18.20;99.90;;;;;;5100926;28;20040;-67
2023/09/23 08:36:01;;;;;;;3.42;2.55;;;18.80;99.90;;;;;;5109815;27;20044;-67
2023/09/23 08:38:27;;;;;;;3.80;2.20;;;18.90;99.90;;;;;;5099598;28;20364;-67
2023/09/23 08:40:53;;;;;;;2.70;2.20;;;19.00;99.90;;;;;;5094579;28;20035;-67
2023/09/23 08:43:36;;;;;;;3.90;2.42;;;18.70;99.90;;;;;;5098123;28;20036;-67
2023/09/23 08:46:09;;;;;;;2.95;1.70;;;18.80;99.90;;;;;;5102484;28;20043;-67
2023/09/23 08:48:35;;;;;;;5.72;2.83;;;19.40;99.90;;;;;;5101066;28;20043;-68
2023/09/23 08:51:03;;;;;;;2.65;2.05;;;19.60;99.90;;;;;;5099508;28;20772;-67
2023/09/23 08:53:45;;;;;;;3.17;2.08;;;19.20;99.90;;;;;;5097530;28;20055;-67
2023/09/23 08:56:11;;;;;;;2.92;2.05;;;18.50;99.90;;;;;;5101063;28;20459;-68
2023/09/23 08:58:37;;;;;;;4.28;1.65;;;18.00;99.90;;;;;;5083947;28;20091;-68
2023/09/23 09:01:03;;;;;;;2.17;1.58;;;17.60;99.90;;;;;;5080641;28;20542;-68
2023/09/23 09:03:30;;;;;;;2.95;1.80;;;17.90;99.90;;;;;;5116235;27;20526;-68
2023/09/23 09:05:56;;;;;;;1.75;1.58;;;18.10;99.90;;;;;;5077985;28;20047;-67
2023/09/23 09:08:21;;;;;;;4.03;1.83;;;18.00;99.90;;;;;;5063700;28;20047;-68
2023/09/23 09:10:47;;;;;;;2.95;1.73;;;17.80;99.90;;;;;;5116473;27;20073;-68
2023/09/23 09:13:17;;;;;;;2.70;1.63;;;17.50;99.90;;;;;;5082038;28;20150;-68
2023/09/23 09:15:42;;;;;;;4.25;1.70;;;17.20;99.90;;;;;;5100146;28;20055;-68
2023/09/23 09:18:08;;;;;;;1.67;1.33;;;16.90;99.90;;;;;;5087267;28;20032;-67
2023/09/23 09:20:34;;;;;;;1.60;1.48;;;17.20;99.90;;;;;;5102478;28;20042;-68
2023/09/23 09:23:00;;;;;;;2.88;1.45;;;18.20;99.90;;;;;;5085493;28;20043;-68
2023/09/23 09:25:26;;;;;;;2.63;1.73;;;19.30;99.90;;;;;;5119674;27;20546;-68
2023/09/23 09:27:52;;;;;;;5.88;1.40;;;20.30;99.90;;;;;;5082399;28;20604;-68
2023/09/23 09:30:19;;;;;;;2.20;1.20;;;21.10;99.90;;;;;;5115065;28;20039;-68
2023/09/23 09:32:46;;;;;;;3.40;1.25;;;21.70;99.90;;;;;;5101155;28;20801;-68
2023/09/23 09:35:19;;;;;;;3.03;1.02;;;22.40;99.90;;;;;;5094133;28;20048;-68
2023/09/23 09:37:48;;;;;;;2.30;1.20;;;22.80;99.90;;;;;;5079280;28;20046;-68
2023/09/23 09:40:23;;;;;;;2.25;1.48;;;22.40;99.90;;;;;;5100845;28;20048;-68
2023/09/23 09:42:53;;;;;;;0.98;0.80;;;22.00;99.90;;;;;;5078937;28;20488;-68
2023/09/23 09:45:21;;;;;;;1.17;0.70;;;21.60;99.90;;;;;;5100479;28;20051;-68
2023/09/23 09:47:50;;;;;;;1.10;0.80;;;21.30;99.90;;;;;;5102389;28;20046;-68
2023/09/23 09:50:16;;;;;;;1.42;0.88;;;21.10;99.90;;;;;;5094722;28;20052;-68
2023/09/23 09:52:46;;;;;;;1.80;0.45;;;20.50;99.90;;;;;;5082131;28;20051;-68
2023/09/23 09:55:18;;;;;;;1.90;0.45;;;19.80;99.90;;;;;;5097481;28;20044;-68
2023/09/23 09:57:52;;;;;;;0.65;0.40;;;19.30;99.90;;;;;;5095402;28;20044;-68
2023/09/23 10:00:33;;;;;;;1.65;0.60;;;19.00;99.90;;;;;;5099210;28;20035;-68
2023/09/23 10:03:00;;;;;;;0.50;0.30;;;18.60;99.90;;;;;;5103262;28;20046;-68
2023/09/23 10:05:46;;;;;;;1.58;0.68;;;18.30;99.90;;;;;;5079820;28;20123;-68
2023/09/23 10:08:15;;;;;;;0.88;0.40;;;18.30;99.90;;;;;;5084323;28;20044;-68
2023/09/23 10:10:48;;;;;;;0.80;0.50;;;18.30;99.90;;;;;;5082431;28;20487;-68
2023/09/23 10:13:22;;;;;;;0.40;0.30;;;18.50;99.90;;;;;;5078969;28;20052;-68
2023/09/23 10:15:48;;;;;;;2.33;0.57;;;18.70;99.90;;;;;;5113352;28;20055;-68
2023/09/23 10:18:18;;;;;;;1.30;0.52;;;18.60;99.90;;;;;;5121363;27;20032;-68
2023/09/23 10:20:51;;;;;;;2.72;0.50;;;18.70;99.90;;;;;;5108076;27;20036;-68
2023/09/23 10:23:19;;;;;;;2.60;0.50;;;18.50;99.90;;;;;;5102729;28;20367;-69
2023/09/23 10:25:47;;;;;;;0.95;0.40;;;18.20;99.90;;;;;;5091260;28;20285;-68
2023/09/23 10:28:31;;;;;;;0.47;0.35;;;17.90;99.90;;;;;;5087044;28;20060;-68
2023/09/23 10:31:03;;;;;;;1.15;0.50;;;17.70;99.90;;;;;;5105008;28;20410;-68
2023/09/23 10:33:31;;;;;;;1.95;0.57;;;17.60;99.90;;;;;;5108688;28;20048;-69
2023/09/23 10:35:58;;;;;;;1.40;0.60;;;18.20;99.90;;;;;;5120979;27;20051;-68
2023/09/23 10:38:30;;;;;;;1.45;0.40;;;19.20;99.90;;;;;;5105389;28;20093;-68
2023/09/23 10:40:57;;;;;;;1.48;0.40;;;20.30;99.90;;;;;;5088558;28;20039;-69
2023/09/23 10:43:23;;;;;;;0.68;0.30;;;21.30;99.90;;;;;;5102432;28;20046;-69
2023/09/23 10:45:53;;;;;;;0.75;0.30;;;22.00;99.90;;;;;;5090734;28;20060;-69
2023/09/23 10:48:19;;;;;;;2.22;0.20;;;22.00;99.90;;;;;;5102202;28;20053;-69
2023/09/23 10:50:45;;;;;;;0.22;0.20;;;21.70;99.90;;;;;;5109582;28;20077;-70
2023/09/23 10:53:12;;;;;;;0.60;0.10;;;22.10;99.90;;;;;;5097509;28;20218;-70
2023/09/23 10:55:41;;;;;;;0.10;0.10;;;21.80;99.90;;;;;;5083835;28;20490;-70
2023/09/23 10:58:10;;;;;;;0.73;0.20;;;21.50;99.90;;;;;;5074469;28;20051;-70
2023/09/23 11:00:36;;;;;;;1.42;0.45;;;20.90;99.90;;;;;;5070113;28;20399;-70
2023/09/23 11:03:12;;;;;;;1.13;0.25;;;20.30;99.90;;;;;;5080780;28;20071;-70
2023/09/23 11:05:39;;;;;;;0.75;0.40;;;19.80;99.90;;;;;;5084029;28;20123;-70
2023/09/23 11:08:15;;;;;;;0.22;0.20;;;19.40;99.90;;;;;;5080607;28;20040;-70
2023/09/23 11:10:42;;;;;;;1.25;0.40;;;19.10;99.90;;;;;;5083372;28;20055;-70
2023/09/23 11:13:10;;;;;;;0.35;0.20;;;18.80;99.90;;;;;;5076740;28;20108;-69
2023/09/23 11:15:39;;;;;;;0.93;0.20;;;18.70;99.90;;;;;;5086437;28;20052;-69
2023/09/23 11:18:10;;;;;;;0.80;0.32;;;18.50;99.90;;;;;;5118464;27;20161;-69
2023/09/23 11:20:41;;;;;;;0.13;0.10;;;18.50;99.90;;;;;;5080317;28;20058;-69
2023/09/23 11:23:07;;;;;;;1.27;0.40;;;18.50;99.90;;;;;;5081763;28;20064;-69
2023/09/23 11:25:42;;;;;;;0.60;0.22;;;18.50;99.90;;;;;;5083266;28;20051;-70
2023/09/23 11:28:17;;;;;;;0.35;0.20;;;18.90;99.90;;;;;;5077680;28;20363;-71
2023/09/23 11:30:43;;;;;;;0.82;0.30;;;19.40;99.90;;;;;;5082994;28;20063;-70
2023/09/23 11:33:11;;;;;;;0.75;0.65;;;19.80;99.90;;;;;;5084687;28;20028;-70
2023/09/23 11:35:38;;;;;;;0.47;0.15;;;20.40;99.90;;;;;;5083607;28;20035;-70
2023/09/23 11:38:04;;;;;;;1.10;0.22;;;20.20;99.90;;;;;;5081157;28;20484;-70
2023/09/23 11:40:34;;;;;;;2.60;0.20;;;20.50;99.90;;;;;;5118192;27;20040;-70
2023/09/23 11:43:00;;;;;;;0.82;0.10;;;20.90;99.90;;;;;;5070821;28;20518;-70
2023/09/23 11:45:26;;;;;;;0.30;0.10;;;20.80;99.90;;;;;;5079009;28;20222;-71
2023/09/23 11:47:51;;;;;;;0.35;0.05;;;21.00;99.90;;;;;;5112983;27;20547;-71
2023/09/23 11:50:17;;;;;;;0.30;0.10;;;21.30;99.90;;;;;;5077221;28;20051;-71
2023/09/23 11:52:43;;;;;;;0.43;0.17;;;21.70;99.90;;;;;;5084572;28;20040;-71
2023/09/23 11:55:13;;;;;;;3.25;0.20;;;22.10;99.90;;;;;;5078685;28;20050;-71
2023/09/23 11:57:42;;;;;;;2.28;0.10;;;22.40;99.90;;;;;;5080346;28;20044;-70
2023/09/23 12:00:10;;;;;;;0.20;0.10;;;22.70;99.90;;;;;;5105379;28;20044;-70
2023/09/23 12:02:40;;;;;;;0.20;0.10;;;22.10;99.90;;;;;;5083379;28;20040;-70
2023/09/23 12:05:07;;;;;;;3.20;0.30;;;21.40;99.90;;;;;;5116518;27;20039;-70
2023/09/23 12:07:34;;;;;;;0.08;0.00;;;20.70;99.90;;;;;;5080400;28;20052;-70
2023/09/23 12:10:00;;;;;;;2.38;0.20;;;20.20;99.90;;;;;;5081523;28;20041;-71
2023/09/23 12:12:27;;;;;;;2.15;0.55;;;19.60;99.90;;;;;;5118332;27;20095;-71
2023/09/23 12:14:54;;;;;;;0.50;0.25;;;19.30;99.90;;;;;;5079655;28;20045;-71
2023/09/23 12:17:19;;;;;;;0.90;0.17;;;18.90;99.90;;;;;;5103375;28;20503;-71
2023/09/23 12:19:45;;;;;;;1.70;0.30;;;18.60;99.90;;;;;;5079917;28;20033;-71
2023/09/23 12:22:17;;;;;;;0.40;0.20;;;18.40;99.90;;;;;;5078813;28;20395;-69
2023/09/23 12:24:44;;;;;;;0.10;0.05;;;18.20;99.90;;;;;;5079328;28;20040;-68
2023/09/23 12:27:11;;;;;;;0.30;0.13;;;18.00;99.90;;;;;;5109397;27;20334;-67
2023/09/23 12:29:37;;;;;;;0.10;0.10;;;17.70;99.90;;;;;;5083790;28;20066;-67
2023/09/23 12:32:04;;;;;;;0.52;0.10;;;17.60;99.90;;;;;;5058669;28;20044;-67
2023/09/23 12:34:30;;;;;;;0.00;0.00;;;17.70;99.90;;;;;;5077813;28;20055;-66
2023/09/23 12:36:57;;;;;;;0.45;0.10;;;18.50;99.90;;;;;;5070095;28;20048;-66
2023/09/23 12:39:23;;;;;;;1.73;0.30;;;19.60;99.90;;;;;;5085535;28;20071;-66
2023/09/23 12:41:49;;;;;;;0.55;0.20;;;20.40;99.90;;;;;;5076959;28;20040;-66
2023/09/23 12:44:19;;;;;;;0.00;0.00;;;20.50;99.90;;;;;;5098911;28;20368;-66
2023/09/23 12:46:45;;;;;;;0.00;0.00;;;20.10;99.90;;;;;;5078723;28;20049;-67
2023/09/23 12:49:11;;;;;;;0.10;0.00;;;19.60;99.90;;;;;;5080349;28;20380;-66